Time;durP1;ratioP1;P1;durP2;ratioP2;P2;SDS_P1;SDS_P2;PMS_P1;PMS_P2;Temp;Humidity;BMP_temperature;BMP_pressure;BME280_temperature;BME280_humidity;BME280_pressure;Samples;Min_cycle;Max_cycle;Signal;HPM_P1;HPM_P2
2022/11/13 00:00:19;;;;;;;4.88;4.57;;;6.50;99.90;;;;;;5035722;28;20109;-78
2022/11/13 00:02:48;;;;;;;0.73;0.73;;;6.60;99.90;;;;;;5042480;23;20092;-77
2022/11/13 00:07:49;;;;;;;0.00;0.00;;;;;;;;;;5056336;23;20054;-76
2022/11/13 00:18:02;;;;;;;0.00;0.00;;;6.60;99.90;;;;;;5124673;23;20072;-78
2022/11/13 00:23:09;;;;;;;0.10;0.10;;;6.50;99.90;;;;;;2622817;23;20068;-80
2022/11/13 00:25:35;;;;;;;0.32;0.32;;;;;;;;;;5104422;23;20127;-79
2022/11/13 00:28:01;;;;;;;0.10;0.10;;;6.40;99.90;;;;;;5156648;23;20042;-76
2022/11/13 00:30:26;;;;;;;0.00;0.00;;;6.40;99.90;;;;;;4999209;28;20014;-77
2022/11/13 00:32:59;;;;;;;0.35;0.35;;;6.00;99.90;;;;;;5015447;28;20017;-78
2022/11/13 00:38:03;;;;;;;0.00;0.00;;;6.40;99.90;;;;;;5034525;28;20054;-78
2022/11/13 00:43:30;;;;;;;0.00;0.00;;;6.20;99.90;;;;;;908762;26;20327;-75
2022/11/13 00:56:15;;;;;;;0.88;0.88;;;6.20;99.90;;;;;;5073271;23;20061;-77
2022/11/13 00:58:43;;;;;;;0.00;0.00;;;6.10;99.90;;;;;;5075932;23;20073;-77
2022/11/13 01:01:21;;;;;;;0.00;0.00;;;6.20;99.90;;;;;;5035179;28;20011;-77
2022/11/13 01:03:48;;;;;;;0.10;0.10;;;6.10;99.90;;;;;;5138931;23;20060;-77
2022/11/13 01:06:41;;;;;;;0.00;0.00;;;;;;;;;;1504901;23;20121;-77
2022/11/13 01:17:32;;;;;;;0.00;0.00;;;5.90;99.90;;;;;;5120860;23;20042;-78
2022/11/13 01:20:15;;;;;;;0.10;0.10;;;6.10;99.90;;;;;;4984248;28;20049;-78
2022/11/13 01:22:41;;;;;;;0.00;0.00;;;;;;;;;;5048617;23;20776;-82
2022/11/13 01:25:07;;;;;;;0.10;0.10;;;5.80;99.90;;;;;;5097630;23;20050;-84
2022/11/13 01:28:08;;;;;;;0.00;0.00;;;5.70;99.90;;;;;;5014637;28;20026;-82
2022/11/13 01:30:56;;;;;;;0.00;0.00;;;5.30;99.90;;;;;;5011359;28;20053;-77
2022/11/13 01:33:25;;;;;;;0.55;0.55;;;5.70;99.90;;;;;;5013836;28;20038;-78
2022/11/13 01:38:26;;;;;;;0.00;0.00;;;5.70;99.90;;;;;;4691925;23;20089;-78
2022/11/13 01:40:55;;;;;;;0.08;0.08;;;;;;;;;;5016906;23;20042;-79
2022/11/13 01:43:38;;;;;;;0.10;0.10;;;5.60;99.90;;;;;;5114658;23;20689;31
2022/11/13 01:46:08;;;;;;;0.10;0.10;;;5.70;99.90;;;;;;4953373;29;20024;-79
2022/11/13 01:48:57;;;;;;;0.22;0.22;;;5.70;99.90;;;;;;5007274;23;20077;-76
2022/11/13 01:52:18;;;;;;;0.00;0.00;;;5.70;99.90;;;;;;5076987;23;20090;-76
2022/11/13 02:00:11;;;;;;;0.10;0.10;;;5.60;99.90;;;;;;5011244;28;20062;-78
2022/11/13 02:02:47;;;;;;;0.00;0.00;;;5.70;99.90;;;;;;5013248;28;20002;-77
2022/11/13 02:05:13;;;;;;;0.10;0.10;;;;;;;;;;5060020;23;20051;-78
2022/11/13 02:07:39;;;;;;;0.10;0.10;;;;;;;;;;5011358;28;20030;-77
2022/11/13 02:10:22;;;;;;;0.03;0.03;;;5.70;99.90;;;;;;5036400;23;20140;-78
2022/11/13 02:13:04;;;;;;;0.00;0.00;;;5.60;99.90;;;;;;5039893;23;20050;-77
2022/11/13 02:15:36;;;;;;;0.00;0.00;;;5.60;99.90;;;;;;5048405;23;20040;-78
2022/11/13 02:18:12;;;;;;;0.00;0.00;;;5.70;99.90;;;;;;5011697;28;20007;-77
2022/11/13 02:20:57;;;;;;;0.10;0.10;;;5.60;99.90;;;;;;5036936;23;20093;-78
2022/11/13 02:23:47;;;;;;;0.00;0.00;;;5.60;99.90;;;;;;5107512;23;20091;-78
2022/11/13 02:28:51;;;;;;;0.10;0.10;;;5.40;99.90;;;;;;3403808;23;1177537;-76
2022/11/13 02:31:20;;;;;;;0.00;0.00;;;5.40;99.90;;;;;;5014894;28;20102;-76
2022/11/13 02:33:46;;;;;;;0.10;0.10;;;5.40;99.90;;;;;;5052590;23;20058;-76
2022/11/13 02:36:12;;;;;;;1.05;1.00;;;5.40;99.90;;;;;;5061862;23;20038;-76
2022/11/13 02:38:40;;;;;;;0.10;0.10;;;5.40;99.90;;;;;;5040082;23;20010;-77
2022/11/13 02:41:06;;;;;;;0.00;0.00;;;5.40;99.90;;;;;;5035451;23;20145;-77
2022/11/13 02:43:31;;;;;;;0.10;0.10;;;5.30;99.90;;;;;;5023510;23;20058;-78
2022/11/13 02:48:33;;;;;;;0.00;0.00;;;5.30;99.90;;;;;;3674348;23;20529;-78
2022/11/13 02:51:10;;;;;;;0.00;0.00;;;5.30;99.90;;;;;;5015135;28;20029;-76
2022/11/13 02:53:36;;;;;;;0.10;0.10;;;5.30;99.90;;;;;;5083118;23;20058;-79
2022/11/13 02:56:22;;;;;;;0.00;0.00;;;;;;;;;;5069840;23;20540;-76
2022/11/13 03:01:35;;;;;;;0.17;0.17;;;5.30;99.90;;;;;;5073823;23;20054;-77
2022/11/13 03:04:02;;;;;;;0.00;0.00;;;5.40;99.90;;;;;;5087607;23;20159;-76
2022/11/13 03:11:38;;;;;;;0.00;0.00;;;5.30;99.90;;;;;;3890848;23;20065;-76
2022/11/13 03:14:04;;;;;;;0.10;0.10;;;5.30;99.90;;;;;;5036340;28;20021;-76
2022/11/13 03:16:33;;;;;;;0.00;0.00;;;5.30;99.90;;;;;;5062313;23;20108;-79
2022/11/13 03:21:36;;;;;;;0.10;0.10;;;5.30;99.90;;;;;;4362101;23;20282;-78
2022/11/13 03:24:10;;;;;;;0.10;0.10;;;5.20;99.90;;;;;;5041453;23;20611;-78
2022/11/13 03:27:02;;;;;;;0.10;0.10;;;5.20;99.90;;;;;;5063591;23;20035;-79
2022/11/13 03:29:31;;;;;;;0.00;0.00;;;5.20;99.90;;;;;;5056544;23;20038;-77
2022/11/13 03:32:36;;;;;;;0.03;0.03;;;5.20;99.90;;;;;;5016237;28;20022;-79
2022/11/13 03:37:37;;;;;;;0.00;0.00;;;5.20;99.90;;;;;;5028856;23;20038;-76
2022/11/13 03:40:17;;;;;;;0.00;0.00;;;3.40;99.90;;;;;;5015626;28;20065;-81
2022/11/13 03:42:49;;;;;;;0.10;0.10;;;5.30;99.90;;;;;;5010310;28;20093;-87
2022/11/13 03:45:14;;;;;;;0.03;0.03;;;5.20;99.90;;;;;;5011735;28;20033;-79
2022/11/13 03:50:25;;;;;;;0.10;0.10;;;5.30;99.90;;;;;;4784485;23;20038;-81
2022/11/13 03:55:27;;;;;;;0.00;0.00;;;5.30;99.90;;;;;;3780782;23;20069;-76
2022/11/13 03:57:54;;;;;;;0.00;0.00;;;5.30;99.90;;;;;;4999349;28;20050;-77
2022/11/13 04:00:38;;;;;;;0.00;0.00;;;5.30;99.90;;;;;;5042576;23;20038;-78
2022/11/13 04:05:57;;;;;;;0.10;0.10;;;5.30;99.90;;;;;;4956012;23;20053;-78
2022/11/13 04:08:35;;;;;;;0.00;0.00;;;5.30;99.90;;;;;;5019567;28;20034;-77
2022/11/13 04:11:09;;;;;;;0.10;0.10;;;2.90;99.90;;;;;;5036207;28;20263;-79
2022/11/13 04:18:46;;;;;;;0.10;0.10;;;5.40;99.90;;;;;;4076781;23;20042;-78
2022/11/13 04:23:56;;;;;;;0.00;0.00;;;5.50;99.90;;;;;;4313643;23;20053;-78
2022/11/13 04:26:22;;;;;;;0.00;0.00;;;5.50;99.90;;;;;;5173421;23;20041;-79
2022/11/13 04:28:52;;;;;;;0.10;0.10;;;5.60;99.90;;;;;;5087276;23;20076;-78
2022/11/13 04:31:39;;;;;;;0.10;0.10;;;;;;;;;;5120262;23;21025;-77
2022/11/13 04:34:04;;;;;;;0.00;0.00;;;;;;;;;;5115092;23;20046;-79
2022/11/13 04:36:39;;;;;;;1.02;1.02;;;5.50;99.90;;;;;;5117532;23;20065;-77
2022/11/13 04:39:14;;;;;;;0.22;0.22;;;5.50;99.90;;;;;;5058712;23;20069;-78
2022/11/13 04:44:26;;;;;;;0.00;0.00;;;5.50;99.90;;;;;;5036991;28;20020;-78
2022/11/13 04:46:52;;;;;;;0.00;0.00;;;5.50;99.90;;;;;;5033179;28;20045;-75
2022/11/13 04:51:53;;;;;;;0.10;0.10;;;;;;;;;;5036455;23;20070;-77
2022/11/13 04:56:57;;;;;;;0.00;0.00;;;5.50;99.90;;;;;;5152697;23;20034;-77
2022/11/13 04:59:23;;;;;;;0.00;0.00;;;5.60;99.90;;;;;;5054775;23;20041;-79
2022/11/13 05:04:24;;;;;;;0.10;0.10;;;5.60;99.90;;;;;;5091105;23;20050;-77
2022/11/13 05:07:16;;;;;;;0.00;0.00;;;5.70;99.90;;;;;;5019772;23;20069;-81
2022/11/13 05:09:42;;;;;;;0.00;0.00;;;5.70;99.90;;;;;;5053882;23;20040;-76
2022/11/13 05:14:48;;;;;;;0.00;0.00;;;5.70;99.90;;;;;;5010657;28;19912;-76
2022/11/13 05:17:30;;;;;;;0.00;0.00;;;5.70;99.90;;;;;;5038883;23;20038;-77
2022/11/13 05:22:37;;;;;;;0.00;0.00;;;5.60;99.90;;;;;;4694664;23;20018;-76
2022/11/13 05:25:04;;;;;;;0.10;0.10;;;;;;;;;;5072689;23;20037;-76
2022/11/13 05:30:15;;;;;;;0.52;0.52;;;5.80;99.90;;;;;;962332;26;20401;-77
2022/11/13 05:32:44;;;;;;;3.15;2.95;;;5.90;99.90;;;;;;5032691;28;20109;-79
2022/11/13 05:35:38;;;;;;;0.00;0.00;;;5.90;99.90;;;;;;5034257;28;20006;-76
2022/11/13 05:38:05;;;;;;;0.00;0.00;;;5.90;99.90;;;;;;4995676;28;20046;-78
2022/11/13 05:40:31;;;;;;;0.00;0.00;;;5.80;99.90;;;;;;4979185;28;20019;-79
2022/11/13 05:45:41;;;;;;;0.10;0.10;;;5.80;99.90;;;;;;4283810;23;20068;-77
2022/11/13 05:48:10;;;;;;;0.00;0.00;;;5.80;99.90;;;;;;5036191;28;20027;-80
2022/11/13 05:58:23;;;;;;;0.10;0.10;;;;;;;;;;4775891;26;20034;-76
2022/11/13 06:16:27;;;;;;;0.10;0.10;;;6.10;99.90;;;;;;5012726;28;20053;-86
2022/11/13 06:19:14;;;;;;;2.28;2.17;;;5.80;99.90;;;;;;5011006;28;20029;-79
2022/11/13 06:24:33;;;;;;;0.00;0.00;;;6.00;99.90;;;;;;5269198;23;20034;-78
2022/11/13 06:27:18;;;;;;;0.10;0.10;;;;;;;;;;5420441;23;20129;-77
2022/11/13 06:29:58;;;;;;;0.10;0.10;;;5.90;99.90;;;;;;5034166;28;20037;-76
2022/11/13 06:32:24;;;;;;;0.10;0.10;;;6.00;99.90;;;;;;5173894;23;20060;-76
2022/11/13 06:34:59;;;;;;;0.10;0.10;;;5.90;99.90;;;;;;5091833;23;20152;-79
2022/11/13 06:37:25;;;;;;;0.00;0.00;;;6.00;99.90;;;;;;5053565;23;20053;-76
2022/11/13 06:39:56;;;;;;;0.10;0.10;;;6.00;99.90;;;;;;5040898;23;20041;-76
2022/11/13 06:42:23;;;;;;;0.10;0.10;;;6.10;99.90;;;;;;5017340;28;20022;-77
2022/11/13 06:49:55;;;;;;;0.10;0.10;;;;;;;;;;5085682;23;20116;-76
2022/11/13 06:52:28;;;;;;;0.10;0.10;;;6.30;99.90;;;;;;5172935;23;20109;-75
2022/11/13 06:54:54;;;;;;;0.03;0.03;;;6.40;99.90;;;;;;5036759;23;20089;-75
2022/11/13 06:57:19;;;;;;;0.10;0.10;;;6.30;99.90;;;;;;5029168;28;20273;-77
2022/11/13 07:02:20;;;;;;;0.05;0.05;;;6.60;99.90;;;;;;5101982;23;20068;-76
2022/11/13 07:04:46;;;;;;;0.00;0.00;;;;;;;;;;5026004;28;20029;-77
2022/11/13 07:07:23;;;;;;;0.17;0.17;;;6.70;99.90;;;;;;5018327;28;20138;-78
2022/11/13 07:15:02;;;;;;;44.25;40.63;;;6.80;99.90;;;;;;5179165;23;20038;-75
2022/11/13 07:20:03;;;;;;;0.00;0.00;;;6.90;99.90;;;;;;5006653;28;20686;-78
2022/11/13 07:22:32;;;;;;;2.55;2.45;;;7.10;99.90;;;;;;5003461;23;20122;-78
2022/11/13 07:24:58;;;;;;;0.05;0.05;;;6.90;99.90;;;;;;4991409;28;20045;-76
2022/11/13 07:27:33;;;;;;;0.00;0.00;;;7.10;99.90;;;;;;5050247;23;20031;-78
2022/11/13 07:30:11;;;;;;;0.10;0.10;;;7.10;99.90;;;;;;4987965;28;20102;-77
2022/11/13 07:32:38;;;;;;;0.10;0.10;;;7.10;99.90;;;;;;5007490;28;20070;-76
2022/11/13 07:35:04;;;;;;;0.08;0.08;;;7.00;99.90;;;;;;5048128;23;20081;-78
2022/11/13 07:37:33;;;;;;;0.10;0.10;;;7.10;99.90;;;;;;4996267;28;20037;-76
2022/11/13 07:39:59;;;;;;;3.17;3.03;;;7.10;99.90;;;;;;5014871;23;20042;-76
2022/11/13 07:44:57;;;;;;;3.58;3.42;;;;;;;;;;5002588;28;20077;-76
2022/11/13 07:47:23;;;;;;;0.30;0.30;;;;;;;;;;4993149;28;20027;-75
2022/11/13 07:52:14;;;;;;;0.10;0.10;;;7.20;99.90;;;;;;5001151;23;20109;-76
2022/11/13 07:54:53;;;;;;;0.10;0.10;;;7.20;99.90;;;;;;4995941;28;20030;-77
2022/11/13 07:57:21;;;;;;;0.08;0.08;;;;;;;;;;4980438;28;20039;-77
2022/11/13 07:59:52;;;;;;;0.10;0.10;;;7.10;99.90;;;;;;5053612;23;20070;-75
2022/11/13 08:02:20;;;;;;;1.17;1.08;;;7.00;99.90;;;;;;5049680;23;20049;-76
2022/11/13 08:05:07;;;;;;;0.43;0.43;;;7.00;99.90;;;;;;5032896;23;20741;-76
2022/11/13 08:07:45;;;;;;;0.20;0.20;;;7.20;99.90;;;;;;5005778;28;20674;-77
2022/11/13 08:10:10;;;;;;;0.10;0.10;;;7.10;99.90;;;;;;4998623;28;20029;-77
2022/11/13 08:12:37;;;;;;;0.10;0.10;;;7.30;99.90;;;;;;4990488;28;20231;-76
2022/11/13 08:15:09;;;;;;;0.00;0.00;;;7.40;99.90;;;;;;4996543;23;20054;-77
2022/11/13 08:17:36;;;;;;;11.45;11.07;;;7.50;99.90;;;;;;4990788;28;20598;-77
2022/11/13 08:20:02;;;;;;;0.10;0.10;;;7.40;99.90;;;;;;4990282;28;20030;-77
2022/11/13 08:22:33;;;;;;;0.10;0.10;;;7.40;99.90;;;;;;4974813;28;20676;-77
2022/11/13 08:25:08;;;;;;;0.03;0.03;;;7.90;99.90;;;;;;4992512;28;20026;-77
2022/11/13 08:27:34;;;;;;;0.20;0.20;;;;;;;;;;5173769;23;20061;-78
2022/11/13 08:30:00;;;;;;;0.10;0.10;;;7.90;99.90;;;;;;4972477;28;20049;-77
2022/11/13 08:32:32;;;;;;;0.10;0.10;;;8.20;99.90;;;;;;4989921;28;20062;-77
2022/11/13 08:35:10;;;;;;;0.15;0.15;;;8.40;99.90;;;;;;4975069;28;20022;-77
2022/11/13 08:37:38;;;;;;;0.90;0.90;;;8.00;99.90;;;;;;4990592;28;20058;-77
2022/11/13 08:40:07;;;;;;;3.10;3.00;;;8.80;99.90;;;;;;4994155;28;20019;-77
2022/11/13 08:42:34;;;;;;;0.40;0.40;;;8.90;99.90;;;;;;5003066;28;20230;-79
2022/11/13 08:45:12;;;;;;;0.10;0.10;;;9.00;99.90;;;;;;5003489;28;20082;-77
2022/11/13 08:47:39;;;;;;;0.20;0.20;;;8.80;99.90;;;;;;5005220;28;20729;-78
2022/11/13 08:50:45;;;;;;;0.20;0.20;;;7.60;99.90;;;;;;5008800;28;20069;-77
2022/11/13 08:53:11;;;;;;;0.10;0.10;;;8.90;99.90;;;;;;4988265;28;20014;-77
2022/11/13 08:56:02;;;;;;;0.10;0.10;;;8.90;99.90;;;;;;5006425;28;20030;-78
2022/11/13 08:58:37;;;;;;;0.10;0.10;;;8.70;99.90;;;;;;5004687;28;20058;-79
2022/11/13 09:01:05;;;;;;;;;;;8.30;99.90;;;;;;5005838;28;20035;-79
2022/11/13 09:03:31;;;;;;;2.03;2.03;;;9.20;99.90;;;;;;4979851;28;19902;-77
2022/11/13 09:06:22;;;;;;;0.10;0.10;;;9.10;99.90;;;;;;4976215;28;20030;-87
2022/11/13 09:09:09;;;;;;;0.20;0.20;;;9.40;99.90;;;;;;4939136;29;20048;-77
2022/11/13 09:11:42;;;;;;;0.30;0.30;;;9.40;99.90;;;;;;4937730;29;20035;-77
2022/11/13 09:14:10;;;;;;;0.20;0.20;;;9.70;99.90;;;;;;4904013;29;20059;-77
2022/11/13 09:16:36;;;;;;;1.05;1.05;;;9.90;99.90;;;;;;4918301;29;20107;-77
2022/11/13 09:19:02;;;;;;;0.20;0.20;;;9.90;99.90;;;;;;4927891;28;20065;-78
2022/11/13 09:21:29;;;;;;;0.82;0.82;;;10.00;99.90;;;;;;4931802;29;20677;-77
2022/11/13 09:24:05;;;;;;;0.20;0.20;;;10.20;99.90;;;;;;4920063;29;20033;-77
2022/11/13 09:26:31;;;;;;;0.25;0.25;;;10.40;99.90;;;;;;4910188;29;20123;-77
2022/11/13 09:31:27;;;;;;;0.30;0.30;;;10.80;99.90;;;;;;5024316;28;20041;-78
2022/11/13 09:33:52;;;;;;;0.77;0.77;;;10.80;99.90;;;;;;5026222;23;20147;-79
2022/11/13 09:36:18;;;;;;;0.20;0.20;;;11.10;99.90;;;;;;5017012;28;20037;-75
2022/11/13 09:38:49;;;;;;;1.13;1.10;;;11.20;99.90;;;;;;4998495;28;20031;-76
2022/11/13 09:41:25;;;;;;;0.73;0.73;;;11.70;99.90;;;;;;5014705;28;20038;-78
2022/11/13 09:43:52;;;;;;;2.30;2.20;;;11.30;99.90;;;;;;5023453;23;20067;-78
2022/11/13 09:46:40;;;;;;;0.20;0.20;;;11.50;99.90;;;;;;5012257;28;20504;-77
2022/11/13 09:49:15;;;;;;;0.20;0.20;;;11.60;99.90;;;;;;5014143;28;20037;-77
2022/11/13 09:51:49;;;;;;;2.40;2.30;;;9.10;99.90;;;;;;5012208;28;20023;-80
2022/11/13 09:54:27;;;;;;;0.50;0.50;;;11.60;99.90;;;;;;4994897;28;20041;-77
2022/11/13 09:57:50;;;;;;;1.98;1.88;;;11.50;99.90;;;;;;5013393;28;20050;-78
2022/11/13 10:00:36;;;;;;;0.10;0.10;;;11.50;99.90;;;;;;5001964;23;20129;-80
2022/11/13 10:04:05;;;;;;;1.17;1.17;;;11.40;99.90;;;;;;5020930;28;20756;-77
2022/11/13 10:07:24;;;;;;;0.38;0.38;;;11.30;99.90;;;;;;4941062;29;20040;-77
2022/11/13 10:10:41;;;;;;;0.65;0.65;;;11.30;99.90;;;;;;4957499;29;20027;-77
2022/11/13 10:15:44;;;;;;;0.20;0.20;;;11.40;99.90;;;;;;961450;26;20276;-79
2022/11/13 10:18:19;;;;;;;7.05;6.43;;;11.50;99.90;;;;;;5019468;28;20046;-80
2022/11/13 10:21:07;;;;;;;1.38;1.38;;;11.40;99.90;;;;;;5013300;28;20018;-85
2022/11/13 10:23:37;;;;;;;0.20;0.20;;;11.50;99.90;;;;;;5021619;28;20064;-77
2022/11/13 10:26:34;;;;;;;0.20;0.20;;;11.70;99.90;;;;;;5009684;28;20032;-79
2022/11/13 10:29:19;;;;;;;7.22;6.68;;;12.00;99.90;;;;;;5008959;28;20048;-86
2022/11/13 10:32:21;;;;;;;0.32;0.32;;;11.90;99.90;;;;;;5014700;28;20022;-79
2022/11/13 10:35:05;;;;;;;1.17;1.17;;;12.10;99.90;;;;;;5018824;28;20025;-79
2022/11/13 10:38:02;;;;;;;1.13;1.08;;;12.10;99.90;;;;;;5019341;28;20022;-81
2022/11/13 10:40:46;;;;;;;0.20;0.20;;;11.90;99.90;;;;;;5016995;28;20092;-86
2022/11/13 10:43:33;;;;;;;0.20;0.20;;;11.80;99.90;;;;;;5014616;28;20026;-90
2022/11/13 10:46:31;;;;;;;;;;;;;;;;;;;;;
2022/11/13 10:49:12;;;;;;;0.52;0.52;;;12.10;99.90;;;;;;5013684;28;20037;-81
2022/11/13 10:51:44;;;;;;;1.30;1.30;;;12.10;99.90;;;;;;5006379;28;20203;-92
2022/11/13 10:54:30;;;;;;;0.15;0.15;;;12.30;99.90;;;;;;4989522;28;20107;-85
2022/11/13 10:57:05;;;;;;;0.77;0.77;;;12.30;99.90;;;;;;5006024;28;20026;-80
2022/11/13 10:59:39;;;;;;;0.30;0.30;;;12.60;99.90;;;;;;5002702;28;20642;-77
2022/11/13 11:02:18;;;;;;;1.17;1.15;;;12.60;99.90;;;;;;5001727;28;20573;-77
2022/11/13 11:04:44;;;;;;;1.00;1.00;;;12.40;99.90;;;;;;5004152;28;20038;-79
2022/11/13 11:07:17;;;;;;;2.40;2.30;;;12.60;99.90;;;;;;4985888;28;20037;-78
2022/11/13 11:09:45;;;;;;;3.90;3.70;;;12.60;99.90;;;;;;5003193;28;20037;-78
2022/11/13 11:12:15;;;;;;;0.45;0.45;;;12.70;99.90;;;;;;5024624;28;20018;-78
2022/11/13 11:14:50;;;;;;;3.75;3.50;;;12.60;99.90;;;;;;5010663;28;20136;-80
2022/11/13 11:17:17;;;;;;;0.20;0.20;;;12.60;99.90;;;;;;5007019;28;20042;-91
2022/11/13 11:19:51;;;;;;;0.90;0.90;;;12.60;99.90;;;;;;4995329;28;20022;-90
2022/11/13 11:22:28;;;;;;;1.33;1.27;;;12.50;99.90;;;;;;4993465;28;20029;-89
2022/11/13 11:25:04;;;;;;;0.40;0.40;;;12.30;99.90;;;;;;4995580;28;20026;-89
2022/11/13 11:36:21;;;;;;;0.65;0.65;;;12.20;99.90;;;;;;4993938;26;20050;-77
2022/11/13 11:41:50;;;;;;;2.38;2.28;;;12.10;99.90;;;;;;5037922;23;20058;-80
2022/11/13 11:44:37;;;;;;;6.53;5.25;;;12.00;99.90;;;;;;5013307;28;20068;-83
2022/11/13 11:47:10;;;;;;;0.30;0.30;;;12.00;99.90;;;;;;5009501;28;20113;-84
2022/11/13 11:49:39;;;;;;;0.35;0.35;;;11.90;99.90;;;;;;5008814;28;20033;-78
2022/11/13 11:52:38;;;;;;;1.77;1.75;;;12.00;99.90;;;;;;5011073;28;20450;-79
2022/11/13 11:55:26;;;;;;;0.28;0.28;;;12.00;99.90;;;;;;5009067;28;20022;-86
2022/11/13 12:14:04;;;;;;;0.32;0.32;;;12.10;99.90;;;;;;5038901;23;20068;-90
2022/11/13 12:17:02;;;;;;;0.20;0.20;;;12.20;99.90;;;;;;5010809;28;20092;-84
2022/11/13 12:19:55;;;;;;;0.40;0.40;;;12.20;99.90;;;;;;4996608;28;20082;-73
2022/11/13 12:22:46;;;;;;;0.40;0.40;;;12.30;99.90;;;;;;5011453;28;20515;-90
2022/11/13 12:25:31;;;;;;;8.48;7.68;;;12.20;99.90;;;;;;4997879;28;20018;-90
2022/11/13 12:28:11;;;;;;;5.00;4.68;;;12.20;99.90;;;;;;4991168;28;20054;-80
2022/11/13 12:30:49;;;;;;;0.20;0.20;;;12.20;99.90;;;;;;4990146;28;20042;-80
2022/11/13 12:33:38;;;;;;;1.33;1.27;;;12.10;99.90;;;;;;4988781;28;20201;-81
2022/11/13 12:36:04;;;;;;;6.55;6.07;;;12.00;99.90;;;;;;4985176;28;20070;-82
2022/11/13 12:38:59;;;;;;;10.50;3.20;;;11.90;99.90;;;;;;4985668;28;20026;-81
2022/11/13 12:41:43;;;;;;;0.20;0.20;;;12.00;99.90;;;;;;4969321;28;20026;-79
2022/11/13 12:44:27;;;;;;;0.35;0.35;;;11.90;99.90;;;;;;4985637;28;20023;-93
2022/11/13 12:46:55;;;;;;;1.55;1.55;;;11.80;99.90;;;;;;4984489;28;20102;-80
2022/11/13 12:49:30;;;;;;;0.20;0.20;;;11.70;99.90;;;;;;4951045;28;20235;-89
2022/11/13 12:52:24;;;;;;;0.20;0.20;;;11.90;99.90;;;;;;4987510;28;20026;-82
2022/11/13 12:55:33;;;;;;;1.02;1.00;;;12.60;99.90;;;;;;4988233;28;20118;-83
2022/11/13 12:58:10;;;;;;;0.20;0.20;;;11.90;99.90;;;;;;4986634;28;20054;-82
2022/11/13 13:00:40;;;;;;;2.22;2.15;;;11.90;99.90;;;;;;4982789;28;20050;-82
2022/11/13 13:03:39;;;;;;;0.50;0.50;;;12.00;99.90;;;;;;4982733;28;20061;-78
2022/11/13 13:06:26;;;;;;;4.97;4.68;;;12.00;99.90;;;;;;4982864;28;20019;-74
2022/11/13 13:09:16;;;;;;;1.38;1.27;;;10.00;99.90;;;;;;4984544;28;20026;-75
2022/11/13 13:12:19;;;;;;;0.20;0.20;;;12.20;99.90;;;;;;4966992;28;20053;-79
2022/11/13 13:15:15;;;;;;;0.20;0.20;;;12.10;99.90;;;;;;4964095;28;20586;-77
2022/11/13 13:18:12;;;;;;;0.20;0.20;;;12.10;99.90;;;;;;4947125;28;20031;-77
2022/11/13 13:34:04;;;;;;;0.30;0.30;;;12.50;99.90;;;;;;5096556;23;20306;-79
2022/11/13 13:36:47;;;;;;;2.25;2.15;;;12.60;99.90;;;;;;4992820;28;20308;-82
2022/11/13 13:39:38;;;;;;;0.95;0.95;;;12.70;99.90;;;;;;5006497;28;20020;-80
2022/11/13 13:42:20;;;;;;;0.20;0.20;;;12.60;99.90;;;;;;5008340;28;20038;-91
2022/11/13 13:45:18;;;;;;;0.30;0.30;;;12.70;99.90;;;;;;5006751;28;20018;-91
2022/11/13 13:47:50;;;;;;;1.35;1.35;;;12.70;99.90;;;;;;5008117;28;20018;-91
2022/11/13 13:50:36;;;;;;;1.30;1.30;;;12.70;99.90;;;;;;5012678;28;20029;-86
2022/11/13 13:53:02;;;;;;;0.30;0.30;;;12.70;99.90;;;;;;5010705;28;20530;-81
2022/11/13 13:55:35;;;;;;;0.32;0.32;;;12.50;99.90;;;;;;5006619;28;20061;-91
2022/11/13 13:58:08;;;;;;;3.83;3.63;;;12.60;99.90;;;;;;5006960;28;20018;-81
2022/11/13 14:00:34;;;;;;;3.30;3.10;;;12.50;99.90;;;;;;4972061;28;20137;-78
2022/11/13 14:03:02;;;;;;;4.20;4.00;;;12.50;99.90;;;;;;5006678;28;20034;-79
2022/11/13 14:05:31;;;;;;;2.10;2.00;;;12.50;99.90;;;;;;5011720;28;20052;-84
2022/11/13 14:07:58;;;;;;;0.25;0.25;;;12.40;99.90;;;;;;4987039;28;20030;-78
2022/11/13 14:10:27;;;;;;;8.25;7.40;;;12.30;99.90;;;;;;4992867;28;20597;-87
2022/11/13 14:13:04;;;;;;;1.02;1.02;;;12.30;99.90;;;;;;5019063;28;20081;-82
2022/11/13 14:15:32;;;;;;;0.30;0.30;;;12.50;99.90;;;;;;5009095;28;20022;-80
2022/11/13 14:18:13;;;;;;;10.70;10.23;;;12.50;99.90;;;;;;4977876;28;20029;-84
2022/11/13 14:20:51;;;;;;;4.70;4.40;;;12.50;99.90;;;;;;5013360;28;20020;-80
2022/11/13 14:23:42;;;;;;;0.95;0.95;;;12.40;99.90;;;;;;5004057;28;20022;-79
2022/11/13 14:26:10;;;;;;;0.47;0.47;;;12.20;99.90;;;;;;4949543;29;20080;-79
2022/11/13 14:28:59;;;;;;;32.33;27.17;;;12.20;99.90;;;;;;4953004;29;20056;-80
2022/11/13 14:31:37;;;;;;;4.03;3.70;;;12.00;99.90;;;;;;4955218;29;20044;-81
2022/11/13 14:34:19;;;;;;;3.35;3.17;;;11.90;99.90;;;;;;4941456;29;20048;-82
2022/11/13 14:36:49;;;;;;;4.50;4.30;;;11.90;99.90;;;;;;4953743;29;20126;-79
2022/11/13 14:39:43;;;;;;;1.08;1.02;;;11.70;99.90;;;;;;4956131;29;20047;-81
2022/11/13 14:42:54;;;;;;;2.50;2.40;;;11.70;99.90;;;;;;4952722;29;20055;-81
2022/11/13 14:45:28;;;;;;;0.85;0.80;;;11.60;99.90;;;;;;4953966;29;20027;-82
2022/11/13 14:48:03;;;;;;;1.27;1.25;;;11.60;99.90;;;;;;4956843;29;20022;-82
2022/11/13 14:51:23;;;;;;;2.60;2.50;;;11.60;99.90;;;;;;4956798;29;20095;-83
2022/11/13 14:54:32;;;;;;;1.08;1.05;;;11.50;99.90;;;;;;4957315;29;20004;-80
2022/11/13 14:57:10;;;;;;;4.78;4.47;;;11.50;99.90;;;;;;4957575;29;20023;-80
2022/11/13 14:59:57;;;;;;;0.77;0.77;;;11.40;99.90;;;;;;4957365;29;20175;-79
2022/11/13 15:02:25;;;;;;;8.27;7.65;;;11.30;99.90;;;;;;4972697;28;20044;-80
2022/11/13 15:04:51;;;;;;;6.05;5.65;;;11.30;99.90;;;;;;5040329;23;20045;-76
2022/11/13 15:07:39;;;;;;;0.22;0.22;;;11.20;99.90;;;;;;5008746;28;20022;-75
2022/11/13 15:10:09;;;;;;;0.73;0.73;;;11.10;99.90;;;;;;5008704;28;20320;-77
2022/11/13 15:12:34;;;;;;;0.90;0.90;;;11.10;99.90;;;;;;5012044;28;20022;-76
2022/11/13 15:15:00;;;;;;;2.85;2.75;;;11.00;99.90;;;;;;5007994;28;20072;-76
2022/11/13 15:17:32;;;;;;;2.40;2.30;;;10.10;99.90;;;;;;5015181;28;20006;-76
2022/11/13 15:20:30;;;;;;;0.40;0.40;;;11.00;99.90;;;;;;4991608;28;20034;-78
2022/11/13 15:22:59;;;;;;;0.20;0.20;;;11.00;99.90;;;;;;4941646;29;20055;-78
2022/11/13 15:25:26;;;;;;;0.20;0.20;;;10.90;99.90;;;;;;4947134;28;20027;-76
2022/11/13 15:27:54;;;;;;;2.28;2.17;;;11.00;99.90;;;;;;4948606;29;20031;-76
2022/11/13 15:30:19;;;;;;;15.18;8.88;;;11.00;99.90;;;;;;4933773;29;20043;-80
2022/11/13 15:32:52;;;;;;;1.08;1.08;;;11.00;99.90;;;;;;4948465;29;20032;-75
2022/11/13 15:35:19;;;;;;;3.40;3.20;;;10.90;99.90;;;;;;4953439;29;20035;-86
2022/11/13 15:37:58;;;;;;;2.42;2.33;;;10.90;99.90;;;;;;4949048;29;20024;-79
2022/11/13 15:40:29;;;;;;;10.82;10.20;;;10.80;99.90;;;;;;5054386;23;20132;-79
2022/11/13 15:42:57;;;;;;;0.10;0.10;;;10.70;99.90;;;;;;5030499;28;20026;-79
2022/11/13 15:45:32;;;;;;;0.40;0.40;;;10.70;99.90;;;;;;5030848;28;20638;-78
2022/11/13 15:48:18;;;;;;;2.50;2.40;;;10.70;99.90;;;;;;5037311;28;20026;-77
2022/11/13 15:50:45;;;;;;;7.10;6.75;;;10.70;99.90;;;;;;5034164;28;20021;-78
2022/11/13 15:53:12;;;;;;;0.90;0.90;;;10.70;99.90;;;;;;5029549;28;20030;-79
2022/11/13 15:55:44;;;;;;;0.68;0.68;;;10.60;99.90;;;;;;5028406;28;20010;-79
2022/11/13 15:58:17;;;;;;;1.55;1.45;;;10.80;99.90;;;;;;5031481;28;20042;-79
2022/11/13 16:00:45;;;;;;;0.38;0.38;;;10.60;99.90;;;;;;4979902;28;20018;-80
2022/11/13 16:03:46;;;;;;;0.38;0.38;;;10.60;99.90;;;;;;5036134;28;20041;-81
2022/11/13 16:06:22;;;;;;;6.35;6.00;;;10.60;99.90;;;;;;5035318;28;20018;-77
2022/11/13 16:08:49;;;;;;;2.20;0.80;;;10.50;99.90;;;;;;5031008;28;20044;-78
2022/11/13 16:11:20;;;;;;;0.30;0.30;;;10.60;99.90;;;;;;5036350;28;20010;-77
2022/11/13 16:13:49;;;;;;;1.13;1.13;;;10.50;99.90;;;;;;5016934;28;20025;-77
2022/11/13 16:16:33;;;;;;;0.35;0.35;;;10.50;99.90;;;;;;5034935;28;20014;-77
2022/11/13 16:19:02;;;;;;;2.53;2.42;;;8.30;99.90;;;;;;5035235;28;20056;-76
2022/11/13 16:21:56;;;;;;;0.65;0.65;;;10.50;99.90;;;;;;5033839;28;20037;-77
2022/11/13 16:24:31;;;;;;;0.20;0.20;;;10.00;99.90;;;;;;5034679;28;20045;-76
2022/11/13 16:26:57;;;;;;;1.02;1.02;;;10.50;99.90;;;;;;5030744;23;20069;-77
2022/11/13 16:29:44;;;;;;;16.10;14.77;;;10.50;99.90;;;;;;5009328;28;20112;-76
2022/11/13 16:32:36;;;;;;;0.43;0.43;;;10.40;99.90;;;;;;5011383;28;20057;-76
2022/11/13 16:35:07;;;;;;;1.48;1.48;;;10.70;99.90;;;;;;5015285;28;20010;-77
2022/11/13 16:37:39;;;;;;;0.30;0.30;;;10.50;99.90;;;;;;5015753;28;20048;-76
2022/11/13 16:40:40;;;;;;;1.10;1.10;;;10.50;99.90;;;;;;5014832;28;20051;-77
2022/11/13 16:43:23;;;;;;;1.63;1.55;;;10.50;99.90;;;;;;4995120;28;20356;-75
2022/11/13 16:45:51;;;;;;;0.20;0.20;;;10.40;99.90;;;;;;4990763;28;20198;-79
2022/11/13 16:48:20;;;;;;;0.50;0.50;;;8.10;99.90;;;;;;4995495;28;20096;-77
2022/11/13 16:50:45;;;;;;;0.63;0.63;;;10.40;99.90;;;;;;4985206;28;20057;-77
2022/11/13 16:53:11;;;;;;;0.77;0.77;;;10.50;99.90;;;;;;4985025;28;20120;-78
2022/11/13 16:55:38;;;;;;;2.60;2.50;;;10.40;99.90;;;;;;4968266;28;20800;-77